Omaha, Nebraska
Current Conditions -  °F | °C
As of 2:52 AM on Sunday 23 Nov 2014 (Local Time) from KOMA Reporting Station
Overcast Overcast  
Wind Chill: 12°   Ceiling: 1300
Heat Index: 12°   Visibility: 9mi
Dew Point: 11°   Wind: 13mph
Humidity: 96%   Direction: 160°SSE
Pressure: 29.51"   Gusts: NA
Location:  41.26°N, 95.94°W
Report Text: KOMA 230852Z 16011KT 9SM BKN013 OVC023 12/11 A2951 RMK AO2 SLP993 60000 T01170111 56016
Loading
Personal Weather Stations






























Interactive Weather Map New forecast layout! Learn more

10-Day Weather Forecast

Advertisements
Track Severe Weather on mobile